Time;durP1;ratioP1;P1;durP2;ratioP2;P2;SDS_P1;SDS_P2;PMS_P1;PMS_P2;Temp;Humidity;BMP_temperature;BMP_pressure;BME280_temperature;BME280_humidity;BME280_pressure;Samples;Min_cycle;Max_cycle;Signal;HPM_P1;HPM_P2
2024/04/11 00:01:30;;;;;;;5.80;3.37;;;11.30;98.10;;;;;;5423550;26;20523;-70
2024/04/11 00:03:57;;;;;;;4.00;3.37;;;11.30;98.20;;;;;;5431280;26;20333;-70
2024/04/11 00:06:23;;;;;;;5.37;4.10;;;11.30;98.50;;;;;;5421056;26;20312;-70
2024/04/11 00:08:49;;;;;;;6.00;3.40;;;11.30;98.80;;;;;;5426763;26;20475;-70
2024/04/11 00:11:14;;;;;;;5.27;3.33;;;11.30;98.40;;;;;;5439097;26;20228;-71
2024/04/11 00:13:40;;;;;;;6.07;4.23;;;11.30;98.50;;;;;;5429691;26;20611;-71
2024/04/11 00:16:05;;;;;;;5.17;3.40;;;11.20;98.50;;;;;;5430732;26;20606;-71
2024/04/11 00:18:31;;;;;;;6.43;3.73;;;11.20;98.80;;;;;;5412942;26;20703;-70
2024/04/11 00:20:56;;;;;;;6.10;3.80;;;11.20;99.10;;;;;;5417867;26;20240;-70
2024/04/11 00:23:23;;;;;;;6.00;4.37;;;11.20;99.30;;;;;;5429197;26;20232;-70
2024/04/11 00:25:57;;;;;;;6.60;3.90;;;11.20;99.40;;;;;;5425881;26;20245;-70
2024/04/11 00:28:24;;;;;;;4.80;4.10;;;11.20;99.30;;;;;;5429037;26;20521;-70
2024/04/11 00:30:51;;;;;;;5.93;4.13;;;11.10;99.60;;;;;;5429304;26;20916;-70
2024/04/11 00:33:16;;;;;;;5.87;4.27;;;11.10;99.90;;;;;;5432704;26;20504;-70
2024/04/11 00:35:42;;;;;;;4.40;4.00;;;11.10;99.90;;;;;;5449667;26;20486;-70
2024/04/11 00:38:10;;;;;;;7.50;4.97;;;11.00;99.90;;;;;;5424360;26;20284;-70
2024/04/11 00:40:36;;;;;;;6.03;4.40;;;11.00;99.90;;;;;;5426794;26;20874;-70
2024/04/11 00:43:01;;;;;;;6.20;4.23;;;11.00;99.90;;;;;;5424188;26;20538;-70
2024/04/11 00:45:28;;;;;;;8.50;4.67;;;11.00;99.90;;;;;;5417950;26;20461;-70
2024/04/11 00:47:53;;;;;;;7.07;4.43;;;11.00;99.90;;;;;;5432029;26;20231;-69
2024/04/11 00:50:19;;;;;;;5.93;4.83;;;11.00;99.90;;;;;;5428515;26;20560;-69
2024/04/11 00:52:48;;;;;;;7.60;4.80;;;10.90;99.90;;;;;;5429670;26;20232;-69
2024/04/11 00:55:15;;;;;;;7.20;4.20;;;10.90;99.90;;;;;;5437589;26;20521;-69
2024/04/11 00:57:40;;;;;;;5.73;4.27;;;10.90;99.90;;;;;;5428493;26;20461;-69
2024/04/11 01:00:06;;;;;;;9.63;4.23;;;10.90;99.90;;;;;;5433120;26;20569;-70
2024/04/11 01:02:33;;;;;;;6.80;3.90;;;10.90;99.90;;;;;;5418957;26;20752;-69
2024/04/11 01:05:00;;;;;;;6.30;4.13;;;10.80;99.90;;;;;;5430774;26;20466;-69
2024/04/11 01:07:26;;;;;;;6.90;3.93;;;10.80;99.90;;;;;;5432521;26;20790;-70
2024/04/11 01:09:52;;;;;;;9.73;3.77;;;10.80;99.90;;;;;;5432093;26;20608;-71
2024/04/11 01:12:18;;;;;;;5.53;4.00;;;10.80;99.90;;;;;;5435233;26;20513;-71
2024/04/11 01:14:45;;;;;;;5.77;3.63;;;10.80;99.90;;;;;;5436599;26;20553;-70
2024/04/11 01:17:13;;;;;;;9.80;3.93;;;10.80;99.90;;;;;;5428226;26;20575;-70
2024/04/11 01:19:40;;;;;;;8.23;4.37;;;10.70;99.90;;;;;;5444323;26;20527;-68
2024/04/11 01:22:06;;;;;;;5.30;4.10;;;10.70;99.90;;;;;;5428805;26;20495;-69
2024/04/11 01:24:34;;;;;;;9.27;4.40;;;10.70;99.90;;;;;;5434155;26;20513;-69
2024/04/11 01:27:00;;;;;;;7.80;3.90;;;10.70;99.90;;;;;;5418000;26;20272;-69
2024/04/11 01:29:26;;;;;;;6.50;3.80;;;10.70;99.90;;;;;;5434390;26;20579;-70
2024/04/11 01:31:57;;;;;;;5.10;3.83;;;10.70;99.90;;;;;;5425431;26;20496;-69
2024/04/11 01:34:23;;;;;;;6.30;4.10;;;10.60;99.90;;;;;;5427709;26;20228;-69
2024/04/11 01:36:49;;;;;;;6.27;4.73;;;10.60;99.90;;;;;;5422156;26;20457;-69
2024/04/11 01:39:15;;;;;;;6.87;4.67;;;10.60;99.90;;;;;;5428897;26;21192;-70
2024/04/11 01:41:41;;;;;;;5.50;3.47;;;10.60;99.90;;;;;;5428731;26;20232;-69
2024/04/11 01:44:06;;;;;;;7.63;4.53;;;10.60;99.90;;;;;;5431849;26;20458;-69
2024/04/11 01:46:32;;;;;;;7.23;5.40;;;10.50;99.90;;;;;;5427236;26;20236;-69
2024/04/11 01:48:59;;;;;;;10.53;6.07;;;10.50;99.90;;;;;;5435284;26;20221;-69
2024/04/11 01:51:25;;;;;;;9.60;4.30;;;10.50;99.90;;;;;;5419220;26;21887;-70
2024/04/11 01:53:51;;;;;;;5.63;4.70;;;10.50;99.90;;;;;;5434797;26;20541;-70
2024/04/11 01:56:16;;;;;;;5.23;3.80;;;10.40;99.90;;;;;;5431957;26;20244;-70
2024/04/11 01:58:42;;;;;;;6.57;4.43;;;10.40;99.90;;;;;;5431886;26;20220;-69
2024/04/11 02:01:12;;;;;;;5.03;3.87;;;10.40;99.90;;;;;;5429755;26;20888;-69
2024/04/11 02:03:43;;;;;;;6.67;3.83;;;10.40;99.90;;;;;;5415679;26;20266;-69
2024/04/11 02:06:11;;;;;;;5.27;4.30;;;10.30;99.90;;;;;;5421788;26;20553;-70
2024/04/11 02:08:37;;;;;;;7.90;3.77;;;10.40;99.90;;;;;;5419029;26;20974;-69
2024/04/11 02:11:04;;;;;;;6.83;4.57;;;10.40;99.90;;;;;;5426070;26;20473;-69
2024/04/11 02:13:30;;;;;;;4.80;3.60;;;10.30;99.90;;;;;;5424490;26;20541;-69
2024/04/11 02:15:56;;;;;;;7.77;4.30;;;10.30;99.90;;;;;;5426039;26;20469;-69
2024/04/11 02:18:21;;;;;;;5.47;4.23;;;10.20;99.90;;;;;;5416587;26;20462;-70
2024/04/11 02:20:53;;;;;;;10.30;4.60;;;10.20;99.90;;;;;;5431402;26;20244;-70
2024/04/11 02:23:18;;;;;;;6.97;3.80;;;10.20;99.90;;;;;;5430794;26;20317;-70
2024/04/11 02:25:44;;;;;;;5.03;3.53;;;10.10;99.90;;;;;;5426617;26;20458;-70
2024/04/11 02:28:10;;;;;;;8.00;3.40;;;10.10;99.90;;;;;;5425243;26;20255;-70
2024/04/11 02:30:36;;;;;;;6.33;3.83;;;10.10;99.90;;;;;;5428232;26;20270;-70
2024/04/11 02:33:01;;;;;;;7.27;3.40;;;10.10;99.90;;;;;;5430469;26;20268;-70
2024/04/11 02:35:28;;;;;;;6.53;3.93;;;10.10;99.90;;;;;;5416730;26;20282;-70
2024/04/11 02:37:54;;;;;;;7.67;4.17;;;10.10;99.90;;;;;;5431844;26;20453;-70
2024/04/11 02:40:20;;;;;;;8.63;4.10;;;10.10;99.90;;;;;;5430838;26;20252;-70
2024/04/11 02:42:46;;;;;;;11.10;4.70;;;10.00;99.90;;;;;;5431102;26;20517;-70
2024/04/11 02:45:18;;;;;;;5.00;3.53;;;10.00;99.90;;;;;;5434084;26;20981;-70
2024/04/11 02:47:44;;;;;;;4.73;4.00;;;9.90;99.90;;;;;;5420667;26;20229;-70
2024/04/11 02:50:15;;;;;;;5.07;4.07;;;9.80;99.90;;;;;;5424021;26;20479;-70
2024/04/11 02:52:41;;;;;;;7.50;3.87;;;9.70;99.90;;;;;;5418542;26;20611;-70
2024/04/11 02:55:08;;;;;;;5.30;3.97;;;9.70;99.90;;;;;;5435305;26;20556;-69
2024/04/11 02:57:34;;;;;;;7.50;3.90;;;9.70;99.90;;;;;;5431021;26;20454;-70
2024/04/11 03:00:00;;;;;;;5.40;4.13;;;9.60;99.90;;;;;;5427741;26;20465;-70
2024/04/11 03:02:28;;;;;;;9.03;4.30;;;9.60;99.90;;;;;;5426532;26;20863;-70
2024/04/11 03:04:57;;;;;;;5.93;4.10;;;9.60;99.90;;;;;;5429165;26;20294;-70
2024/04/11 03:07:23;;;;;;;6.97;4.67;;;9.60;99.90;;;;;;5424200;26;20465;-70
2024/04/11 03:09:51;;;;;;;8.57;3.90;;;9.60;99.90;;;;;;5425850;26;20469;-70
2024/04/11 03:12:16;;;;;;;8.53;4.47;;;9.60;99.90;;;;;;5420600;26;20274;-70
2024/04/11 03:14:46;;;;;;;7.43;3.53;;;9.50;99.90;;;;;;5433760;26;21092;-70
2024/04/11 03:17:12;;;;;;;6.50;3.80;;;9.50;99.90;;;;;;5432636;26;20851;-70
2024/04/11 03:19:39;;;;;;;8.40;4.50;;;9.50;99.90;;;;;;5436632;26;20458;-70
2024/04/11 03:22:05;;;;;;;5.20;3.63;;;9.50;99.90;;;;;;5422911;26;20521;-70
2024/04/11 03:24:31;;;;;;;11.93;3.77;;;9.50;99.90;;;;;;5426560;26;20462;-69
2024/04/11 03:26:57;;;;;;;6.40;4.07;;;9.50;99.90;;;;;;5411845;26;20537;-70
2024/04/11 03:29:22;;;;;;;7.03;4.30;;;9.50;99.90;;;;;;5430201;26;20228;-70
2024/04/11 03:31:50;;;;;;;11.53;6.90;;;9.50;99.90;;;;;;5426537;26;20348;-70
2024/04/11 03:34:17;;;;;;;8.17;4.73;;;9.50;99.90;;;;;;5434729;26;20358;-70
2024/04/11 03:36:44;;;;;;;5.60;4.20;;;9.50;99.90;;;;;;5430956;26;20502;-70
2024/04/11 03:39:12;;;;;;;14.13;4.17;;;9.50;99.90;;;;;;5430803;26;20473;-68
2024/04/11 03:41:40;;;;;;;7.20;4.37;;;9.50;99.90;;;;;;5431494;26;20477;-70
2024/04/11 03:44:06;;;;;;;6.93;4.77;;;9.50;99.90;;;;;;5429179;26;20824;-70
2024/04/11 03:46:32;;;;;;;9.20;5.50;;;9.50;99.90;;;;;;5429679;26;20528;-70
2024/04/11 03:48:57;;;;;;;5.40;4.53;;;9.50;99.90;;;;;;5428408;26;21344;-69
2024/04/11 03:51:25;;;;;;;7.30;4.93;;;9.50;99.90;;;;;;5429507;26;20248;-69
2024/04/11 03:53:58;;;;;;;10.40;4.93;;;9.50;99.90;;;;;;5425503;26;20300;-69
2024/04/11 03:56:27;;;;;;;5.83;4.57;;;9.40;99.90;;;;;;5425425;26;20479;-69
2024/04/11 03:58:57;;;;;;;11.43;5.27;;;9.40;99.90;;;;;;5437013;26;20525;-69
2024/04/11 04:01:24;;;;;;;10.17;5.57;;;9.40;99.90;;;;;;5435519;26;20789;-69
2024/04/11 04:03:52;;;;;;;7.40;4.30;;;9.40;99.90;;;;;;5431705;26;21062;-69
2024/04/11 04:06:18;;;;;;;8.47;4.20;;;9.40;99.90;;;;;;5431025;26;20571;-70
2024/04/11 04:08:48;;;;;;;7.13;5.20;;;9.40;99.90;;;;;;5441363;26;21002;-69
2024/04/11 04:11:14;;;;;;;4.87;3.90;;;9.40;99.90;;;;;;5425546;26;20468;-69
2024/04/11 04:13:41;;;;;;;5.33;4.23;;;9.40;99.90;;;;;;5434172;26;20530;-69
2024/04/11 04:16:16;;;;;;;8.80;5.33;;;9.40;99.90;;;;;;5442827;26;20462;-69
2024/04/11 04:18:46;;;;;;;13.17;4.90;;;9.30;99.90;;;;;;5428564;26;20480;-70
2024/04/11 04:21:16;;;;;;;7.23;5.37;;;9.40;99.90;;;;;;5431885;26;20560;-69
2024/04/11 04:23:43;;;;;;;7.73;5.70;;;9.30;99.90;;;;;;5431313;26;20840;-69
2024/04/11 04:26:10;;;;;;;7.67;4.50;;;9.30;99.90;;;;;;5417945;26;20467;-70
2024/04/11 04:28:39;;;;;;;8.73;5.03;;;9.30;99.90;;;;;;5424243;26;20467;-69
2024/04/11 04:31:21;;;;;;;8.27;5.20;;;9.40;99.90;;;;;;5423681;26;20504;-69
2024/04/11 04:33:47;;;;;;;6.90;5.43;;;9.40;99.90;;;;;;5431206;26;20451;-70
2024/04/11 04:36:25;;;;;;;10.50;5.30;;;9.40;99.90;;;;;;5427158;26;20483;-70
2024/04/11 04:38:53;;;;;;;7.00;5.30;;;9.30;99.90;;;;;;5423421;26;20446;-70
2024/04/11 04:41:20;;;;;;;7.20;5.50;;;9.30;99.90;;;;;;5435257;26;20545;-70
2024/04/11 04:43:53;;;;;;;8.60;5.20;;;9.30;99.90;;;;;;5429999;26;20579;-69
2024/04/11 04:46:22;;;;;;;5.80;4.57;;;9.30;99.90;;;;;;5432215;26;20573;-70
2024/04/11 04:48:48;;;;;;;8.17;4.63;;;9.30;99.90;;;;;;5430576;26;20469;-70
2024/04/11 04:51:18;;;;;;;6.33;4.40;;;9.30;99.90;;;;;;5422401;26;20609;-70
2024/04/11 04:53:46;;;;;;;9.00;5.07;;;9.30;99.90;;;;;;5428437;26;20462;-70
2024/04/11 04:56:13;;;;;;;5.73;4.73;;;9.30;99.90;;;;;;5431588;26;20935;-71
2024/04/11 04:58:42;;;;;;;6.33;5.00;;;9.40;99.90;;;;;;5428395;26;20798;-69
2024/04/11 05:01:08;;;;;;;6.93;4.80;;;9.40;99.90;;;;;;5424360;26;20474;-70
2024/04/11 05:03:34;;;;;;;10.17;4.60;;;9.40;99.90;;;;;;5429612;26;22597;-70
2024/04/11 05:06:02;;;;;;;5.20;4.33;;;9.40;99.90;;;;;;5425730;26;21289;-71
2024/04/11 05:08:33;;;;;;;5.90;4.20;;;9.40;99.90;;;;;;5430862;26;20457;-70
2024/04/11 05:11:00;;;;;;;8.83;4.27;;;9.30;99.90;;;;;;5416932;26;20560;-70
2024/04/11 05:13:29;;;;;;;6.77;4.30;;;9.30;99.90;;;;;;5433032;26;20520;-70
2024/04/11 05:16:06;;;;;;;6.83;4.20;;;9.40;99.90;;;;;;5423556;26;20496;-70
2024/04/11 05:18:38;;;;;;;6.73;5.13;;;9.40;99.90;;;;;;5428712;26;20941;-70
2024/04/11 05:21:18;;;;;;;5.20;4.03;;;9.40;99.90;;;;;;5424605;26;20461;-70
2024/04/11 05:23:44;;;;;;;4.80;3.73;;;9.40;99.90;;;;;;5427943;26;20533;-70
2024/04/11 05:26:14;;;;;;;7.13;3.97;;;9.40;99.90;;;;;;5423876;26;20848;-69
2024/04/11 05:28:44;;;;;;;9.20;4.07;;;9.40;99.90;;;;;;5421967;26;20518;-69
2024/04/11 05:31:14;;;;;;;6.90;4.60;;;9.40;99.90;;;;;;5426181;26;20593;-69
2024/04/11 05:33:41;;;;;;;6.33;5.20;;;9.30;99.90;;;;;;5424894;26;20466;-69
2024/04/11 05:36:12;;;;;;;11.20;5.30;;;9.30;99.90;;;;;;5428227;26;20528;-70
2024/04/11 05:38:38;;;;;;;9.93;4.40;;;9.30;99.90;;;;;;5435586;26;20453;-69
2024/04/11 05:41:04;;;;;;;10.53;4.83;;;9.30;99.90;;;;;;5427015;26;20465;-69
2024/04/11 05:43:30;;;;;;;6.20;4.50;;;9.30;99.90;;;;;;5429403;26;20698;-69
2024/04/11 05:46:02;;;;;;;6.50;4.80;;;9.20;99.90;;;;;;5420643;26;20931;-69
2024/04/11 05:48:28;;;;;;;6.60;4.67;;;9.20;99.90;;;;;;5445750;26;20320;-69
2024/04/11 05:50:54;;;;;;;5.80;4.83;;;9.20;99.90;;;;;;5424027;26;20457;-68
2024/04/11 05:53:20;;;;;;;9.50;4.73;;;9.20;99.90;;;;;;5424928;26;20367;-69
2024/04/11 05:55:46;;;;;;;8.93;4.97;;;9.30;99.90;;;;;;5425271;26;20683;-69
2024/04/11 05:58:12;;;;;;;9.50;4.50;;;9.30;99.90;;;;;;5423513;26;20504;-69
2024/04/11 06:00:39;;;;;;;8.90;5.20;;;9.30;99.90;;;;;;5434707;26;20458;-69
2024/04/11 06:03:08;;;;;;;10.37;5.40;;;9.30;99.90;;;;;;5435396;26;20569;-69
2024/04/11 06:05:34;;;;;;;7.50;4.97;;;9.40;99.90;;;;;;5426927;26;21072;-69
2024/04/11 06:08:00;;;;;;;5.00;4.30;;;9.40;99.90;;;;;;5421742;26;20467;-69
2024/04/11 06:10:29;;;;;;;8.70;4.80;;;9.40;99.90;;;;;;5434663;26;20526;-70
2024/04/11 06:12:54;;;;;;;6.13;4.40;;;9.40;99.90;;;;;;5430569;26;20302;-69
2024/04/11 06:15:20;;;;;;;8.33;5.23;;;9.40;99.90;;;;;;5429471;26;20541;-69
2024/04/11 06:17:45;;;;;;;11.87;7.27;;;9.50;99.90;;;;;;5420777;26;20461;-69
2024/04/11 06:20:16;;;;;;;7.17;5.10;;;9.60;99.90;;;;;;5440638;26;20227;-69
2024/04/11 06:22:51;;;;;;;8.00;5.43;;;9.60;99.90;;;;;;5422739;26;20304;-70
2024/04/11 06:25:18;;;;;;;14.10;5.20;;;9.60;99.90;;;;;;5424236;26;20552;-69
2024/04/11 06:27:43;;;;;;;7.63;5.70;;;9.60;99.90;;;;;;5432415;26;20473;-70
2024/04/11 06:30:14;;;;;;;8.23;5.37;;;9.70;99.90;;;;;;5432834;26;20579;-69
2024/04/11 06:32:40;;;;;;;9.43;5.50;;;9.70;99.90;;;;;;5426662;26;20299;-70
2024/04/11 06:35:08;;;;;;;6.37;4.53;;;9.80;99.90;;;;;;5422540;26;20461;-70
2024/04/11 06:37:37;;;;;;;6.00;5.03;;;9.80;99.90;;;;;;5434408;26;20509;-70
2024/04/11 06:40:12;;;;;;;7.77;5.13;;;9.90;99.90;;;;;;5424100;26;20555;-70
2024/04/11 06:42:50;;;;;;;9.20;5.53;;;9.90;99.90;;;;;;5435126;26;20532;-70
2024/04/11 06:45:19;;;;;;;7.90;5.17;;;9.90;99.90;;;;;;5428044;26;20865;-70
2024/04/11 06:47:45;;;;;;;12.40;6.10;;;10.00;99.90;;;;;;5427645;26;20454;-69
2024/04/11 06:50:11;;;;;;;13.20;5.27;;;10.10;99.90;;;;;;5431063;26;20465;-70
2024/04/11 06:52:37;;;;;;;7.10;5.77;;;10.10;99.90;;;;;;5432957;26;20301;-70
2024/04/11 06:55:06;;;;;;;9.57;5.93;;;10.20;99.90;;;;;;5433236;26;20224;-70
2024/04/11 06:57:37;;;;;;;12.40;5.73;;;10.20;99.90;;;;;;5424859;26;20559;-69
2024/04/11 07:00:03;;;;;;;8.90;6.00;;;10.20;99.90;;;;;;5432228;26;20466;-70
2024/04/11 07:02:30;;;;;;;7.37;5.53;;;10.30;99.90;;;;;;5446171;26;20528;-70
2024/04/11 07:04:58;;;;;;;12.20;7.13;;;10.40;99.90;;;;;;5431590;26;21504;-70
2024/04/11 07:07:27;;;;;;;13.07;7.73;;;10.40;99.90;;;;;;5424261;26;20477;-70
2024/04/11 07:09:55;;;;;;;8.90;5.13;;;10.50;99.90;;;;;;5424882;26;20501;-70
2024/04/11 07:12:28;;;;;;;9.10;5.40;;;10.50;99.90;;;;;;5419999;26;20524;-70
2024/04/11 07:14:55;;;;;;;9.60;5.87;;;10.60;99.90;;;;;;5437519;26;20921;-70
2024/04/11 07:17:27;;;;;;;9.30;5.50;;;10.60;99.90;;;;;;5427640;26;20543;-70
2024/04/11 07:19:58;;;;;;;6.97;5.13;;;10.70;99.90;;;;;;5425289;26;20537;-67
2024/04/11 07:22:24;;;;;;;8.20;5.53;;;10.80;99.90;;;;;;5428119;26;20563;-67
2024/04/11 07:24:50;;;;;;;6.87;4.80;;;10.80;99.90;;;;;;5433001;26;20465;-67
2024/04/11 07:27:17;;;;;;;14.10;5.33;;;10.90;99.90;;;;;;5425753;26;20317;-67
2024/04/11 07:29:45;;;;;;;6.30;5.00;;;11.00;99.90;;;;;;5426969;26;20473;-67
2024/04/11 07:32:11;;;;;;;12.50;5.43;;;11.10;99.90;;;;;;5435755;26;21005;-67
2024/04/11 07:34:37;;;;;;;13.40;5.33;;;11.10;99.90;;;;;;5432015;26;20465;-68
2024/04/11 07:37:02;;;;;;;9.93;5.00;;;11.20;99.90;;;;;;5435214;26;20453;-67
2024/04/11 07:39:29;;;;;;;7.93;5.37;;;11.30;99.90;;;;;;5435056;26;20296;-66
2024/04/11 07:42:18;;;;;;;6.13;4.50;;;11.30;99.90;;;;;;5434230;26;20327;-67
2024/04/11 07:44:44;;;;;;;9.93;5.57;;;11.40;99.90;;;;;;5429872;26;20538;-66
2024/04/11 07:47:10;;;;;;;11.67;5.10;;;11.30;99.90;;;;;;5434126;26;20700;-65
2024/04/11 07:49:37;;;;;;;11.53;6.63;;;11.40;99.90;;;;;;5434608;26;20467;-66
2024/04/11 07:52:03;;;;;;;10.10;5.30;;;11.50;99.90;;;;;;5429084;26;20275;-66
2024/04/11 07:54:44;;;;;;;7.07;5.40;;;11.70;99.90;;;;;;5426626;26;21088;-66
2024/04/11 07:57:11;;;;;;;10.97;5.20;;;11.80;99.90;;;;;;5440176;26;20529;-66
2024/04/11 08:10:20;;;;;;;15.30;5.73;;;12.20;99.90;;;;;;5418728;26;21201;-66
2024/04/11 08:12:46;;;;;;;11.90;5.17;;;12.30;99.90;;;;;;5419763;26;20481;-66
2024/04/11 08:15:12;;;;;;;10.50;5.87;;;12.40;99.90;;;;;;5429863;26;20522;-66
2024/04/11 08:17:37;;;;;;;8.70;5.43;;;12.40;99.90;;;;;;5433478;26;20469;-66
2024/04/11 08:20:12;;;;;;;8.17;5.60;;;12.50;99.90;;;;;;5437029;26;20240;-66
2024/04/11 08:22:38;;;;;;;7.80;4.93;;;12.60;99.90;;;;;;5425700;26;20562;-66
2024/04/11 08:25:06;;;;;;;6.97;5.57;;;12.70;99.90;;;;;;5421197;26;20909;-66
2024/04/11 08:27:32;;;;;;;7.93;4.97;;;12.80;99.90;;;;;;5430236;26;21241;-66
2024/04/11 08:29:58;;;;;;;7.03;4.70;;;12.80;99.90;;;;;;5423787;26;20524;-67
2024/04/11 08:32:25;;;;;;;14.20;4.40;;;13.00;99.90;;;;;;5423227;26;20564;-67
2024/04/11 08:34:52;;;;;;;7.50;4.10;;;13.10;99.90;;;;;;5416722;26;20543;-67
2024/04/11 08:37:22;;;;;;;8.00;4.60;;;13.20;99.90;;;;;;5421955;26;21383;-66
2024/04/11 08:39:47;;;;;;;7.87;4.70;;;13.30;99.90;;;;;;5432411;26;20808;-67
2024/04/11 08:42:13;;;;;;;6.43;4.20;;;13.30;99.90;;;;;;5427674;26;20469;-66
2024/04/11 08:44:43;;;;;;;7.50;3.83;;;13.40;99.90;;;;;;5423524;26;21132;-66
2024/04/11 08:47:10;;;;;;;8.80;4.47;;;13.50;99.90;;;;;;5418485;26;20233;-67
2024/04/11 08:49:35;;;;;;;8.10;4.00;;;13.50;99.90;;;;;;5433786;26;20517;-66
2024/04/11 08:52:04;;;;;;;8.30;4.33;;;13.60;99.90;;;;;;5433613;26;21007;-66
2024/04/11 08:54:30;;;;;;;7.07;3.93;;;13.60;99.90;;;;;;5429746;26;20750;-67
2024/04/11 08:56:56;;;;;;;10.17;3.97;;;13.80;99.90;;;;;;5417575;26;20467;-67
2024/04/11 08:59:24;;;;;;;7.40;4.13;;;13.90;99.90;;;;;;5425788;26;21095;-66
2024/04/11 09:01:49;;;;;;;10.03;4.33;;;13.90;99.90;;;;;;5419578;26;20523;-67
2024/04/11 09:04:16;;;;;;;4.47;3.70;;;14.00;99.90;;;;;;5427811;26;20471;-67
2024/04/11 09:06:42;;;;;;;4.30;3.43;;;14.10;99.90;;;;;;5426099;26;20245;-67
2024/04/11 09:09:15;;;;;;;5.63;3.50;;;14.10;99.90;;;;;;5417887;26;20799;-67
2024/04/11 09:11:42;;;;;;;7.90;3.53;;;14.20;99.90;;;;;;5434121;26;20519;-68
2024/04/11 09:14:08;;;;;;;9.77;4.10;;;14.20;99.90;;;;;;5419186;26;20533;-68
2024/04/11 09:16:34;;;;;;;5.63;3.77;;;14.30;99.90;;;;;;5423997;26;20481;-68
2024/04/11 09:19:05;;;;;;;8.33;3.90;;;14.40;99.90;;;;;;5420364;26;20237;-67
2024/04/11 09:21:31;;;;;;;6.97;3.87;;;14.50;99.90;;;;;;5434456;26;20473;-68
2024/04/11 09:23:57;;;;;;;8.40;4.70;;;14.50;99.60;;;;;;5429153;26;20970;-67
2024/04/11 09:26:24;;;;;;;7.37;3.80;;;14.60;99.80;;;;;;5430946;26;20584;-66
2024/04/11 09:28:50;;;;;;;6.43;3.40;;;14.60;99.90;;;;;;5426498;26;20236;-66
2024/04/11 09:31:19;;;;;;;8.27;3.90;;;14.80;99.70;;;;;;5435106;26;20463;-66
2024/04/11 09:33:50;;;;;;;11.83;3.87;;;14.90;99.60;;;;;;5432544;26;20229;-66
2024/04/11 09:36:18;;;;;;;5.73;3.73;;;14.90;99.30;;;;;;5418884;26;20556;-66
2024/04/11 09:38:46;;;;;;;8.50;3.43;;;15.00;98.90;;;;;;5438369;26;20546;-66
2024/04/11 09:41:12;;;;;;;8.13;4.10;;;15.00;98.80;;;;;;5430625;26;20482;-66
2024/04/11 09:43:41;;;;;;;6.80;3.50;;;15.10;98.60;;;;;;5432258;26;20987;-65
2024/04/11 09:46:08;;;;;;;11.50;3.37;;;15.10;97.90;;;;;;5424505;26;20523;-66
2024/04/11 09:48:38;;;;;;;6.70;3.87;;;15.20;97.80;;;;;;5428746;26;20481;-66
2024/04/11 09:51:10;;;;;;;8.77;3.60;;;15.30;97.20;;;;;;5428447;26;20506;-66
2024/04/11 09:53:36;;;;;;;8.13;3.70;;;15.30;96.90;;;;;;5418924;26;20463;-65
2024/04/11 09:56:05;;;;;;;12.93;3.60;;;15.40;96.40;;;;;;5426737;26;20462;-66
2024/04/11 09:58:38;;;;;;;9.03;3.40;;;15.40;96.00;;;;;;5435873;26;20455;-66
2024/04/11 10:01:14;;;;;;;7.50;3.60;;;15.50;96.00;;;;;;5422697;26;20482;-67
2024/04/11 10:03:40;;;;;;;4.97;3.40;;;15.50;95.70;;;;;;5428150;26;20457;-67
2024/04/11 10:06:16;;;;;;;5.17;3.40;;;15.60;95.70;;;;;;5413335;26;20531;-66
2024/04/11 10:08:49;;;;;;;5.67;3.30;;;15.60;94.60;;;;;;5435002;26;20220;-67
2024/04/11 10:11:19;;;;;;;6.83;3.17;;;15.70;94.50;;;;;;5427648;26;20466;-67
2024/04/11 10:13:49;;;;;;;6.67;3.17;;;15.80;93.10;;;;;;5425296;26;20613;-66
2024/04/11 10:16:30;;;;;;;4.60;2.73;;;15.80;92.80;;;;;;5434417;26;20586;-67
2024/04/11 10:19:04;;;;;;;6.57;2.90;;;15.80;91.80;;;;;;5428521;26;20517;-67
2024/04/11 10:21:32;;;;;;;7.70;2.80;;;15.90;92.00;;;;;;5427555;26;20465;-67
2024/04/11 10:24:03;;;;;;;5.77;3.47;;;16.00;91.60;;;;;;5432211;26;20518;-67
2024/04/11 10:26:32;;;;;;;4.60;2.40;;;16.00;90.50;;;;;;5444195;26;20537;-67
2024/04/11 10:29:10;;;;;;;4.10;2.60;;;16.00;85.40;;;;;;5432090;26;20607;-67
2024/04/11 10:31:36;;;;;;;5.10;2.60;;;16.10;85.20;;;;;;5430065;26;20468;-68
2024/04/11 10:34:11;;;;;;;3.93;2.30;;;16.20;80.60;;;;;;5434690;26;20496;-67
2024/04/11 10:36:42;;;;;;;4.27;3.00;;;16.20;79.60;;;;;;5435158;26;20482;-68
2024/04/11 10:39:08;;;;;;;5.97;3.90;;;16.30;81.40;;;;;;5424008;26;20474;-68
2024/04/11 10:41:40;;;;;;;5.53;3.43;;;16.40;82.50;;;;;;5425168;26;20479;-68
2024/04/11 10:44:06;;;;;;;6.73;2.93;;;16.50;82.70;;;;;;5429240;26;20556;-68
2024/04/11 10:46:33;;;;;;;5.60;3.10;;;16.50;81.40;;;;;;5425917;26;21143;-68
2024/04/11 10:49:15;;;;;;;5.60;2.70;;;16.60;81.60;;;;;;5426550;26;20239;-68
2024/04/11 10:51:42;;;;;;;4.50;2.63;;;16.70;81.10;;;;;;5420281;26;20469;-68
2024/04/11 10:54:12;;;;;;;7.50;3.50;;;16.80;81.30;;;;;;5427725;26;20803;-68
2024/04/11 10:56:43;;;;;;;4.93;2.57;;;16.90;79.70;;;;;;5423475;26;20611;-68
2024/04/11 10:59:18;;;;;;;4.70;2.70;;;17.00;79.30;;;;;;5423419;26;20469;-67
2024/04/11 11:01:50;;;;;;;4.60;2.80;;;17.10;78.10;;;;;;5421611;26;20816;-67
2024/04/11 11:04:19;;;;;;;6.40;2.90;;;17.20;76.40;;;;;;5424142;26;20869;-67
2024/04/11 11:06:51;;;;;;;7.67;2.90;;;17.30;76.30;;;;;;5427548;26;20490;-67
2024/04/11 11:09:17;;;;;;;5.33;2.87;;;17.40;73.50;;;;;;5427626;26;20525;-68
2024/04/11 11:11:45;;;;;;;4.40;2.80;;;17.40;73.30;;;;;;5425764;26;20522;-67
2024/04/11 11:14:17;;;;;;;8.20;2.93;;;17.50;73.30;;;;;;5423898;26;20524;-68
2024/04/11 11:16:44;;;;;;;4.77;3.20;;;17.60;71.60;;;;;;5427130;26;20588;-68
2024/04/11 11:19:13;;;;;;;6.73;2.80;;;17.60;71.00;;;;;;5431312;26;20474;-67
2024/04/11 11:21:42;;;;;;;8.70;3.70;;;17.70;71.10;;;;;;5432201;26;20475;-67
2024/04/11 11:24:14;;;;;;;5.87;3.00;;;17.80;70.80;;;;;;5442091;26;20522;-68
2024/04/11 11:26:46;;;;;;;7.27;3.27;;;17.90;70.00;;;;;;5423149;26;20477;-68
2024/04/11 11:29:19;;;;;;;5.00;3.20;;;18.00;70.20;;;;;;5429284;26;20554;-68
2024/04/11 11:31:51;;;;;;;6.00;2.93;;;18.20;68.90;;;;;;5432333;26;21159;-68
2024/04/11 11:34:27;;;;;;;5.07;2.70;;;18.40;68.50;;;;;;5427467;26;21022;-68
2024/04/11 11:36:57;;;;;;;4.50;3.20;;;18.60;68.10;;;;;;5427931;26;21511;-67
2024/04/11 11:39:26;;;;;;;5.30;2.93;;;18.80;64.80;;;;;;5435740;26;20462;-67
2024/04/11 11:45:05;;;;;;;7.97;2.93;;;19.20;62.80;;;;;;5432187;26;20511;-67
2024/04/11 11:47:37;;;;;;;4.37;2.60;;;19.40;62.70;;;;;;5428511;26;20469;-67
2024/04/11 11:50:19;;;;;;;9.87;3.10;;;19.50;60.20;;;;;;5423887;26;20504;-67
2024/04/11 11:52:55;;;;;;;6.13;3.03;;;19.80;61.60;;;;;;5429744;26;20543;-67
2024/04/11 11:55:25;;;;;;;5.43;2.97;;;20.00;60.10;;;;;;5425073;26;22652;-67
2024/04/11 11:58:02;;;;;;;8.73;3.87;;;20.30;59.80;;;;;;5425115;26;20501;-68
2024/04/11 12:00:32;;;;;;;9.43;3.13;;;20.90;59.80;;;;;;5436358;26;20558;-67
2024/04/11 12:03:00;;;;;;;5.13;3.17;;;21.40;55.70;;;;;;5429291;26;20505;-68
2024/04/11 12:05:33;;;;;;;4.77;3.10;;;22.20;55.60;;;;;;5424689;26;20529;-67
2024/04/11 12:08:05;;;;;;;5.30;3.90;;;23.70;54.40;;;;;;5431044;26;20478;-66
2024/04/11 12:13:34;;;;;;;4.67;2.73;;;26.20;47.60;;;;;;5434977;26;20583;-67
2024/04/11 12:16:03;;;;;;;3.97;2.53;;;26.80;45.00;;;;;;5417813;26;20466;-67
2024/04/11 12:18:30;;;;;;;6.30;2.57;;;26.50;43.80;;;;;;5431977;26;21078;-67
2024/04/11 12:20:59;;;;;;;4.00;2.97;;;26.20;41.70;;;;;;5424253;26;20851;-67
2024/04/11 12:23:28;;;;;;;7.73;2.97;;;25.80;42.10;;;;;;5427863;26;20462;-68
2024/04/11 12:25:55;;;;;;;5.07;2.93;;;25.40;41.60;;;;;;5426953;26;21179;-68
2024/04/11 12:28:22;;;;;;;6.07;2.50;;;25.00;41.70;;;;;;5438129;26;20459;-67
2024/04/11 12:30:58;;;;;;;4.93;2.90;;;24.70;42.30;;;;;;5435855;26;20473;-67
2024/04/11 12:33:27;;;;;;;4.40;2.97;;;24.40;42.20;;;;;;5432049;26;22575;-67
2024/04/11 12:35:55;;;;;;;5.20;3.13;;;24.30;42.60;;;;;;5426007;26;20528;-68
2024/04/11 12:38:24;;;;;;;5.60;2.83;;;24.20;42.50;;;;;;5429903;26;20462;-68
2024/04/11 12:40:50;;;;;;;5.20;2.90;;;24.10;42.20;;;;;;5426084;26;20826;-68
2024/04/11 12:43:19;;;;;;;4.80;2.73;;;24.00;41.60;;;;;;5452504;26;20546;-68
2024/04/11 12:45:52;;;;;;;5.03;2.63;;;23.60;41.10;;;;;;5426631;26;20473;-67
2024/04/11 12:48:22;;;;;;;4.70;2.80;;;23.80;41.30;;;;;;5437093;26;21270;-68
2024/04/11 12:50:55;;;;;;;4.07;2.93;;;24.00;41.40;;;;;;5418602;26;20544;-69
2024/04/11 12:53:25;;;;;;;4.50;3.13;;;24.20;41.60;;;;;;5428961;26;21057;-68
2024/04/11 12:55:55;;;;;;;4.93;3.20;;;24.20;40.50;;;;;;5436942;26;20573;-66
2024/04/11 12:58:25;;;;;;;10.17;2.63;;;24.40;40.60;;;;;;5422856;26;20469;-68
2024/04/11 13:00:57;;;;;;;3.67;2.60;;;24.40;38.70;;;;;;5425486;26;20462;-67
2024/04/11 13:03:52;;;;;;;3.47;2.80;;;24.40;39.20;;;;;;5421555;26;20465;-67
2024/04/11 13:06:27;;;;;;;5.10;2.67;;;24.70;39.30;;;;;;5426049;26;21416;-67
2024/04/11 13:09:00;;;;;;;5.70;3.50;;;24.80;38.30;;;;;;5421557;26;20524;-67
2024/04/11 13:12:16;;;;;;;9.93;2.90;;;24.80;38.60;;;;;;5442929;26;20539;-67